createdAt,value
2022-10-23T00:00:24.450Z,4.57
2022-10-23T00:03:13.447Z,5.18
2022-10-23T00:05:59.497Z,5.47
2022-10-23T00:08:45.066Z,4.88
2022-10-23T00:11:34.512Z,5.15
2022-10-23T00:14:22.602Z,4.35
2022-10-23T00:17:08.471Z,4.43
2022-10-23T00:19:54.038Z,4.85
2022-10-23T00:22:39.657Z,5.50
2022-10-23T00:25:27.011Z,5.15
2022-10-23T00:28:12.555Z,5.03
2022-10-23T00:30:57.886Z,5.68
2022-10-23T00:33:43.254Z,5.63
2022-10-23T00:36:32.410Z,5.88
2022-10-23T00:39:17.913Z,5.53
2022-10-23T00:42:03.365Z,4.63
2022-10-23T00:44:49.312Z,4.95
2022-10-23T00:47:37.901Z,6.13
2022-10-23T00:50:24.489Z,5.57
2022-10-23T00:53:14.272Z,4.80
2022-10-23T00:56:02.898Z,5.22
2022-10-23T00:58:48.634Z,5.22
2022-10-23T01:01:37.097Z,5.55
2022-10-23T01:04:24.521Z,4.57
2022-10-23T01:07:31.871Z,5.63
2022-10-23T01:10:23.173Z,5.35
2022-10-23T01:13:19.018Z,5.30
2022-10-23T01:16:23.222Z,4.20
2022-10-23T01:19:22.326Z,4.65
2022-10-23T01:22:18.006Z,4.78
2022-10-23T01:25:16.659Z,5.45
2022-10-23T01:28:06.236Z,5.43
2022-10-23T01:30:52.576Z,5.57
2022-10-23T01:33:51.650Z,5.72
2022-10-23T01:36:46.262Z,5.35
2022-10-23T01:39:40.662Z,6.53
2022-10-23T01:42:30.578Z,5.47
2022-10-23T01:45:28.172Z,5.28
2022-10-23T01:48:15.741Z,4.93
2022-10-23T01:51:03.458Z,5.20
2022-10-23T01:53:53.226Z,6.15
2022-10-23T01:56:44.553Z,5.20
2022-10-23T01:59:37.662Z,4.40
2022-10-23T02:02:25.983Z,6.18
2022-10-23T02:05:16.405Z,5.55
2022-10-23T02:08:02.801Z,6.47
2022-10-23T02:10:59.790Z,5.95
2022-10-23T02:13:51.807Z,5.95
2022-10-23T02:17:06.824Z,5.80
2022-10-23T02:22:49.284Z,4.82
2022-10-23T02:25:39.480Z,4.38
2022-10-23T02:28:30.019Z,4.90
2022-10-23T02:31:19.268Z,4.75
2022-10-23T02:34:06.023Z,5.00
2022-10-23T02:36:51.518Z,5.88
2022-10-23T02:39:42.963Z,5.95
2022-10-23T02:42:39.501Z,6.20
2022-10-23T02:45:38.407Z,4.90
2022-10-23T02:48:37.517Z,5.38
2022-10-23T02:51:55.322Z,6.65
2022-10-23T02:54:56.008Z,5.88
2022-10-23T02:57:50.122Z,7.22
2022-10-23T03:00:40.991Z,6.22
2022-10-23T03:03:42.126Z,7.80
2022-10-23T03:06:28.224Z,5.70
2022-10-23T03:09:23.054Z,6.68
2022-10-23T03:12:08.361Z,6.90
2022-10-23T03:14:55.132Z,5.97
2022-10-23T03:17:40.553Z,8.25
2022-10-23T03:20:26.837Z,6.47
2022-10-23T03:23:12.551Z,5.97
2022-10-23T03:25:58.130Z,6.75
2022-10-23T03:28:52.553Z,7.28
2022-10-23T03:31:39.500Z,7.00
2022-10-23T03:34:24.939Z,7.13
2022-10-23T03:37:11.858Z,7.25
2022-10-23T03:39:57.621Z,7.72
2022-10-23T03:42:43.938Z,6.93
2022-10-23T03:45:33.046Z,7.10
2022-10-23T03:48:18.481Z,7.05
2022-10-23T03:51:03.827Z,7.47
2022-10-23T03:53:49.207Z,7.10
2022-10-23T03:56:34.740Z,6.30
2022-10-23T03:59:20.128Z,7.38
2022-10-23T04:02:05.781Z,8.05
2022-10-23T04:04:51.333Z,7.40
2022-10-23T04:07:38.794Z,6.75
2022-10-23T04:10:25.367Z,7.78
2022-10-23T04:13:11.699Z,7.32
2022-10-23T04:15:57.204Z,7.00
2022-10-23T04:18:42.778Z,6.75
2022-10-23T04:21:30.229Z,6.53
2022-10-23T04:24:15.814Z,6.60
2022-10-23T04:27:01.323Z,6.45
2022-10-23T04:29:48.451Z,6.00
2022-10-23T04:32:33.821Z,6.80
2022-10-23T04:35:19.305Z,6.65
2022-10-23T04:38:05.537Z,7.55
2022-10-23T04:40:51.105Z,7.43
2022-10-23T04:43:40.377Z,6.32
2022-10-23T04:46:26.249Z,6.68
2022-10-23T04:49:11.954Z,7.22
2022-10-23T04:52:06.735Z,6.65
2022-10-23T04:55:28.207Z,6.28
2022-10-23T04:58:44.617Z,6.75
2022-10-23T05:01:30.958Z,6.35
2022-10-23T05:04:17.202Z,7.72
2022-10-23T05:10:17.669Z,6.78
2022-10-23T05:13:10.607Z,6.45
2022-10-23T05:15:56.154Z,7.13
2022-10-23T05:18:56.979Z,6.45
2022-10-23T05:21:47.888Z,6.70
2022-10-23T05:24:33.400Z,6.30
2022-10-23T05:27:20.896Z,7.53
2022-10-23T05:30:06.356Z,7.05
2022-10-23T05:32:56.070Z,6.82
2022-10-23T05:35:44.546Z,6.57
2022-10-23T05:38:33.319Z,6.43
2022-10-23T05:41:23.747Z,7.45
2022-10-23T05:44:09.174Z,7.93
2022-10-23T05:47:20.928Z,7.55
2022-10-23T05:50:27.534Z,6.75
2022-10-23T05:53:32.855Z,7.07
2022-10-23T05:56:29.405Z,6.55
2022-10-23T05:59:23.275Z,6.72
2022-10-23T06:02:09.248Z,6.75
2022-10-23T06:05:06.732Z,7.85
2022-10-23T06:08:10.758Z,7.10
2022-10-23T06:10:56.848Z,8.00
2022-10-23T06:13:42.533Z,7.85
2022-10-23T06:16:32.166Z,8.05
2022-10-23T06:19:17.897Z,7.47
2022-10-23T06:22:04.033Z,8.80
2022-10-23T06:25:03.212Z,8.43
2022-10-23T06:27:49.113Z,6.93
2022-10-23T06:33:24.029Z,7.60
2022-10-23T06:36:10.028Z,8.63
2022-10-23T06:39:01.557Z,9.38
2022-10-23T06:42:06.926Z,10.32
2022-10-23T06:45:16.337Z,6.88
2022-10-23T06:48:37.710Z,8.43
2022-10-23T06:51:32.180Z,8.02
2022-10-23T06:54:17.740Z,7.95
2022-10-23T06:57:09.752Z,8.63
2022-10-23T07:00:02.949Z,8.20
2022-10-23T07:02:49.525Z,9.50
2022-10-23T07:05:35.647Z,8.50
2022-10-23T07:08:24.024Z,9.05
2022-10-23T07:11:11.813Z,10.13
2022-10-23T07:13:58.456Z,7.35
2022-10-23T07:16:43.893Z,8.40
2022-10-23T07:19:29.663Z,9.75
2022-10-23T07:22:16.593Z,9.00
2022-10-23T07:25:34.633Z,8.00
2022-10-23T07:28:20.097Z,9.13
2022-10-23T07:31:17.993Z,9.40
2022-10-23T07:34:22.170Z,8.75
2022-10-23T07:37:20.028Z,9.02
2022-10-23T07:40:05.680Z,9.55
2022-10-23T07:42:55.598Z,8.80
2022-10-23T07:45:42.704Z,9.70
2022-10-23T07:48:37.075Z,9.30
2022-10-23T07:51:29.664Z,10.15
2022-10-23T07:54:20.227Z,9.55
2022-10-23T07:57:36.148Z,10.02
2022-10-23T08:03:50.010Z,9.65
2022-10-23T08:06:36.049Z,10.68
2022-10-23T08:09:22.232Z,9.93
2022-10-23T08:12:07.666Z,11.60
2022-10-23T08:15:11.738Z,10.40
2022-10-23T08:18:09.513Z,9.90
2022-10-23T08:23:51.046Z,10.13
2022-10-23T08:26:37.075Z,11.85
2022-10-23T08:29:27.530Z,10.65
2022-10-23T08:32:13.776Z,10.60
2022-10-23T08:35:31.671Z,10.30
2022-10-23T08:38:17.474Z,12.32
2022-10-23T08:41:06.396Z,11.77
2022-10-23T08:44:19.295Z,10.50
2022-10-23T08:47:28.859Z,11.35
2022-10-23T08:50:45.232Z,11.93
2022-10-23T08:53:50.969Z,12.18
2022-10-23T08:56:44.612Z,10.70
2022-10-23T08:59:34.301Z,11.25
2022-10-23T09:02:34.398Z,12.68
2022-10-23T09:05:19.949Z,11.90
2022-10-23T09:08:14.526Z,12.77
2022-10-23T09:11:03.153Z,12.45
2022-10-23T09:14:03.498Z,13.25
2022-10-23T09:17:02.158Z,14.10
2022-10-23T09:19:48.654Z,12.07
2022-10-23T09:22:34.023Z,12.50
2022-10-23T09:25:19.777Z,12.20
2022-10-23T09:28:11.742Z,13.32
2022-10-23T09:31:00.476Z,13.07
2022-10-23T09:33:47.302Z,12.75
2022-10-23T09:36:43.903Z,14.50
2022-10-23T09:39:44.807Z,13.30
2022-10-23T09:42:45.541Z,13.73
2022-10-23T09:45:57.236Z,12.25
2022-10-23T09:48:43.841Z,12.35
2022-10-23T09:51:38.418Z,13.55
2022-10-23T09:54:24.071Z,12.38
2022-10-23T09:57:13.026Z,12.15
2022-10-23T10:00:00.646Z,13.00
2022-10-23T10:02:52.284Z,10.43
2022-10-23T10:05:57.678Z,12.85
2022-10-23T10:08:51.106Z,11.70
2022-10-23T10:11:56.046Z,11.70
2022-10-23T10:15:02.800Z,12.05
2022-10-23T10:18:20.003Z,12.45
2022-10-23T10:21:24.226Z,11.13
2022-10-23T10:24:43.024Z,12.00
2022-10-23T10:27:43.436Z,12.50
2022-10-23T10:30:39.717Z,12.77
2022-10-23T10:33:37.094Z,10.95
2022-10-23T10:36:49.042Z,14.88
2022-10-23T10:40:13.588Z,11.38
2022-10-23T10:43:10.798Z,11.75
2022-10-23T10:49:31.149Z,11.73
2022-10-23T10:53:27.502Z,12.40
2022-10-23T10:56:16.131Z,11.40
2022-10-23T10:59:19.615Z,11.18
2022-10-23T11:02:42.317Z,11.40
2022-10-23T11:05:38.082Z,11.02
2022-10-23T11:08:44.541Z,11.35
2022-10-23T11:12:00.857Z,12.60
2022-10-23T11:14:49.255Z,12.05
2022-10-23T11:17:54.391Z,11.88
2022-10-23T11:20:48.595Z,14.88
2022-10-23T11:23:58.835Z,14.32
2022-10-23T11:26:58.076Z,14.45
2022-10-23T11:30:11.386Z,12.60
2022-10-23T11:33:06.633Z,12.93
2022-10-23T11:36:03.259Z,13.15
2022-10-23T11:39:02.568Z,13.50
2022-10-23T11:41:49.598Z,11.27
2022-10-23T11:44:45.912Z,13.63
2022-10-23T11:47:58.555Z,13.05
2022-10-23T11:50:48.456Z,12.45
2022-10-23T11:53:52.244Z,12.68
2022-10-23T11:56:37.405Z,13.23
2022-10-23T11:59:49.215Z,13.18
2022-10-23T12:02:54.547Z,11.80
2022-10-23T12:05:58.153Z,11.02
2022-10-23T12:08:47.002Z,11.50
2022-10-23T12:11:44.970Z,11.65
2022-10-23T12:14:56.472Z,11.23
2022-10-23T12:17:42.090Z,12.02
2022-10-23T12:20:41.486Z,13.27
2022-10-23T12:23:35.715Z,11.77
2022-10-23T12:29:38.525Z,12.25
2022-10-23T12:32:39.361Z,10.98
2022-10-23T12:35:46.205Z,13.32
2022-10-23T12:38:40.321Z,13.00
2022-10-23T12:41:41.485Z,14.82
2022-10-23T12:44:31.164Z,12.68
2022-10-23T12:47:20.678Z,12.52
2022-10-23T12:50:09.858Z,12.90
2022-10-23T12:52:55.369Z,13.73
2022-10-23T12:55:42.720Z,14.20
2022-10-23T12:58:46.542Z,13.48
2022-10-23T13:01:52.408Z,11.95
2022-10-23T13:04:47.999Z,12.93
2022-10-23T13:07:33.959Z,14.07
2022-10-23T13:10:24.625Z,14.27
2022-10-23T13:13:21.504Z,13.50
2022-10-23T13:16:07.210Z,13.25
2022-10-23T13:19:00.318Z,13.10
2022-10-23T13:21:49.664Z,15.35
2022-10-23T13:24:39.225Z,14.38
2022-10-23T13:27:44.449Z,14.93
2022-10-23T13:30:51.235Z,13.20
2022-10-23T13:33:51.955Z,13.02
2022-10-23T13:36:37.561Z,15.93
2022-10-23T13:39:30.071Z,12.45
2022-10-23T13:42:20.198Z,13.27
2022-10-23T13:45:05.829Z,12.15
2022-10-23T13:47:51.424Z,14.27
2022-10-23T13:50:37.860Z,14.73
2022-10-23T13:53:23.236Z,12.82
2022-10-23T13:56:10.171Z,13.38
2022-10-23T13:58:55.622Z,13.15
2022-10-23T14:01:46.617Z,14.23
2022-10-23T14:04:33.598Z,11.15
2022-10-23T14:07:18.985Z,12.35
2022-10-23T14:10:04.384Z,12.75
2022-10-23T14:12:50.360Z,11.63
2022-10-23T14:15:35.733Z,11.55
2022-10-23T14:18:22.083Z,11.27
2022-10-23T14:21:07.931Z,13.07
2022-10-23T14:23:53.277Z,12.45
2022-10-23T14:26:42.106Z,11.02
2022-10-23T14:29:28.447Z,10.55
2022-10-23T14:32:13.935Z,11.18
2022-10-23T14:35:01.992Z,12.63
2022-10-23T14:37:53.327Z,10.35
2022-10-23T14:40:38.658Z,10.60
2022-10-23T14:43:25.034Z,11.27
2022-10-23T14:46:10.705Z,10.23
2022-10-23T14:49:00.001Z,12.50
2022-10-23T14:51:48.706Z,10.70
2022-10-23T14:54:34.965Z,11.32
2022-10-23T14:57:21.340Z,11.00
2022-10-23T15:00:07.874Z,11.48
2022-10-23T15:02:54.186Z,11.65
2022-10-23T15:05:39.526Z,11.75
2022-10-23T15:08:24.917Z,12.35
2022-10-23T15:11:12.795Z,12.00
2022-10-23T15:14:01.866Z,11.52
2022-10-23T15:16:47.358Z,10.80
2022-10-23T15:19:33.703Z,11.90
2022-10-23T15:22:19.557Z,11.07
2022-10-23T15:25:05.449Z,12.75
2022-10-23T15:27:51.455Z,12.57
2022-10-23T15:30:39.263Z,11.35
2022-10-23T15:33:24.561Z,12.07
2022-10-23T15:36:12.507Z,11.07
2022-10-23T15:38:58.200Z,12.35
2022-10-23T15:41:49.713Z,10.93
2022-10-23T15:44:37.290Z,11.48
2022-10-23T15:47:23.567Z,11.23
2022-10-23T15:50:08.941Z,11.00
2022-10-23T15:52:55.653Z,11.30
2022-10-23T15:55:41.556Z,11.00
2022-10-23T15:58:27.014Z,11.52
2022-10-23T16:01:13.121Z,12.05
2022-10-23T16:03:58.909Z,10.95
2022-10-23T16:06:44.215Z,10.60
2022-10-23T16:09:30.161Z,10.18
2022-10-23T16:12:15.652Z,10.63
2022-10-23T16:15:01.151Z,9.95
2022-10-23T16:17:48.479Z,11.10
2022-10-23T16:20:34.436Z,10.00
2022-10-23T16:23:21.051Z,9.63
2022-10-23T16:26:06.712Z,11.15
2022-10-23T16:28:53.249Z,8.48
2022-10-23T16:31:39.885Z,10.48
2022-10-23T16:34:25.835Z,9.40
2022-10-23T16:37:11.237Z,10.00
2022-10-23T16:40:12.959Z,9.40
2022-10-23T16:43:17.289Z,8.95
2022-10-23T16:46:41.568Z,9.07
2022-10-23T16:49:28.178Z,9.55
2022-10-23T16:52:13.596Z,8.48
2022-10-23T16:55:02.183Z,10.05
2022-10-23T16:57:48.719Z,8.18
2022-10-23T17:00:34.715Z,8.80
2022-10-23T17:03:23.767Z,8.38
2022-10-23T17:06:11.239Z,8.45
2022-10-23T17:08:58.076Z,8.07
2022-10-23T17:11:43.535Z,9.32
2022-10-23T17:14:38.638Z,9.30
2022-10-23T17:17:24.962Z,9.38
2022-10-23T17:20:10.308Z,8.90
2022-10-23T17:22:55.751Z,8.27
2022-10-23T17:25:41.219Z,8.85
2022-10-23T17:28:28.804Z,8.57
2022-10-23T17:31:16.061Z,8.32
2022-10-23T17:34:04.440Z,8.95
2022-10-23T17:36:55.154Z,11.30
2022-10-23T17:39:44.205Z,8.02
2022-10-23T17:42:30.150Z,8.30
2022-10-23T17:45:15.601Z,8.48
2022-10-23T17:48:01.069Z,9.32
2022-10-23T17:50:46.748Z,8.65
2022-10-23T17:53:32.373Z,7.72
2022-10-23T17:56:24.006Z,9.02
2022-10-23T17:59:11.421Z,8.80
2022-10-23T18:01:59.491Z,10.38
2022-10-23T18:04:49.360Z,8.90
2022-10-23T18:07:40.609Z,8.88
2022-10-23T18:10:26.860Z,10.63
2022-10-23T18:13:12.363Z,9.68
2022-10-23T18:15:58.508Z,9.57
2022-10-23T18:18:44.020Z,9.98
2022-10-23T18:21:30.278Z,8.13
2022-10-23T18:24:18.979Z,8.95
2022-10-23T18:27:08.970Z,9.13
2022-10-23T18:29:57.691Z,8.43
2022-10-23T18:32:43.590Z,9.40
2022-10-23T18:35:29.305Z,9.27
2022-10-23T18:38:14.569Z,9.50
2022-10-23T18:41:02.262Z,7.75
2022-10-23T18:43:47.681Z,8.77
2022-10-23T18:46:33.951Z,8.65
2022-10-23T18:49:30.789Z,7.40
2022-10-23T18:52:16.622Z,7.57
2022-10-23T18:55:02.099Z,7.43
2022-10-23T18:57:48.049Z,9.68
2022-10-23T19:00:37.560Z,8.60
2022-10-23T19:03:23.213Z,10.27
2022-10-23T19:06:11.702Z,8.07
2022-10-23T19:09:00.910Z,6.43
2022-10-23T19:11:47.509Z,6.70
2022-10-23T19:14:32.965Z,5.88
2022-10-23T19:17:26.790Z,7.30
2022-10-23T19:20:17.459Z,5.75
2022-10-23T19:23:06.095Z,9.77
2022-10-23T19:25:53.656Z,8.30
2022-10-23T19:28:39.170Z,6.90
2022-10-23T19:31:26.166Z,7.28
2022-10-23T19:34:12.266Z,6.90
2022-10-23T19:36:58.018Z,5.82
2022-10-23T19:39:43.371Z,6.40
2022-10-23T19:42:29.277Z,6.07
2022-10-23T19:45:14.641Z,6.38
2022-10-23T19:48:00.390Z,6.68
2022-10-23T19:50:45.908Z,5.63
2022-10-23T19:53:31.433Z,6.07
2022-10-23T19:56:21.631Z,8.38
2022-10-23T19:59:08.661Z,5.30
2022-10-23T20:01:56.523Z,5.43
2022-10-23T20:04:42.510Z,5.32
2022-10-23T20:07:28.897Z,5.18
2022-10-23T20:10:14.354Z,4.25
2022-10-23T20:13:18.274Z,4.82
2022-10-23T20:16:05.415Z,6.43
2022-10-23T20:18:50.923Z,5.85
2022-10-23T20:21:42.652Z,5.22
2022-10-23T20:24:35.048Z,6.25
2022-10-23T20:27:20.529Z,5.45
2022-10-23T20:30:06.016Z,5.28
2022-10-23T20:32:52.550Z,5.82
2022-10-23T20:35:37.990Z,5.72
2022-10-23T20:38:27.069Z,5.75
2022-10-23T20:41:15.958Z,5.38
2022-10-23T20:44:02.353Z,4.85
2022-10-23T20:46:47.955Z,5.55
2022-10-23T20:49:34.518Z,6.25
2022-10-23T20:52:27.886Z,5.07
2022-10-23T20:55:13.452Z,5.07
2022-10-23T20:57:58.826Z,6.35
2022-10-23T21:00:44.489Z,5.00
2022-10-23T21:03:32.466Z,5.53
2022-10-23T21:06:27.143Z,6.82
2022-10-23T21:09:14.773Z,6.20
2022-10-23T21:12:00.559Z,4.85
2022-10-23T21:14:45.958Z,5.95
2022-10-23T21:20:22.323Z,6.60
2022-10-23T21:23:07.812Z,5.45
2022-10-23T21:25:56.987Z,5.30
2022-10-23T21:28:50.766Z,6.05
2022-10-23T21:31:46.460Z,6.22
2022-10-23T21:34:37.145Z,6.20
2022-10-23T21:37:22.858Z,5.88
2022-10-23T21:40:08.378Z,6.43
2022-10-23T21:42:55.527Z,7.00
2022-10-23T21:45:40.945Z,6.47
2022-10-23T21:48:26.409Z,6.60
2022-10-23T21:51:18.029Z,6.68
2022-10-23T21:54:03.353Z,6.35
2022-10-23T21:56:52.816Z,6.75
2022-10-23T21:59:41.138Z,6.90
2022-10-23T22:02:26.562Z,6.03
2022-10-23T22:05:12.109Z,6.25
2022-10-23T22:07:57.793Z,6.95
2022-10-23T22:10:43.434Z,7.95
2022-10-23T22:13:28.903Z,7.38
2022-10-23T22:16:15.003Z,8.35
2022-10-23T22:19:01.048Z,7.07
2022-10-23T22:21:48.497Z,7.40
2022-10-23T22:24:34.907Z,7.18
2022-10-23T22:27:20.572Z,7.07
2022-10-23T22:30:06.092Z,7.78
2022-10-23T22:32:54.523Z,7.20
2022-10-23T22:35:42.288Z,6.90
2022-10-23T22:38:27.760Z,6.00
2022-10-23T22:41:14.257Z,6.70
2022-10-23T22:43:59.707Z,6.20
2022-10-23T22:46:46.723Z,6.63
2022-10-23T22:49:33.531Z,5.65
2022-10-23T22:52:18.966Z,6.97
2022-10-23T22:55:06.308Z,6.80
2022-10-23T22:57:51.985Z,4.93
2022-10-23T23:00:41.272Z,6.32
2022-10-23T23:03:29.167Z,6.05
2022-10-23T23:06:14.544Z,6.93
2022-10-23T23:09:01.155Z,6.38
2022-10-23T23:11:51.534Z,7.22
2022-10-23T23:14:38.721Z,5.95
2022-10-23T23:17:25.206Z,5.60
2022-10-23T23:20:10.738Z,5.57
2022-10-23T23:22:58.266Z,5.10
2022-10-23T23:25:43.722Z,5.85
2022-10-23T23:28:33.716Z,4.82
2022-10-23T23:31:25.904Z,4.75
2022-10-23T23:34:13.038Z,5.47
2022-10-23T23:36:59.672Z,5.13
2022-10-23T23:39:45.328Z,5.93
2022-10-23T23:42:30.973Z,5.28
2022-10-23T23:45:16.304Z,5.85
2022-10-23T23:48:02.011Z,6.13
2022-10-23T23:50:47.267Z,5.72
2022-10-23T23:53:32.814Z,5.40
2022-10-23T23:56:18.262Z,5.72
2022-10-23T23:59:04.093Z,4.82
